Time;durP1;ratioP1;P1;durP2;ratioP2;P2;SDS_P1;SDS_P2;PMS_P1;PMS_P2;Temp;Humidity;BMP_temperature;BMP_pressure;BME280_temperature;BME280_humidity;BME280_pressure;Samples;Min_cycle;Max_cycle;Signal;HPM_P1;HPM_P2
2023/03/07 00:02:11;;;;;;;61.15;27.38;;;;;;;;;;5027665;28;20049;-50
2023/03/07 00:04:37;;;;;;;68.70;28.55;;;;;;;;;;5027326;28;20527;-48
2023/03/07 00:07:02;;;;;;;57.13;28.75;;;;;;;;;;5024764;28;20045;-46
2023/03/07 00:09:28;;;;;;;66.20;28.48;;;;;;;;;;5027242;28;20099;-50
2023/03/07 00:11:53;;;;;;;61.00;27.77;;;;;;;;;;5026295;28;20021;-50
2023/03/07 00:14:19;;;;;;;55.45;27.02;;;;;;;;;;5027177;28;20028;-49
2023/03/07 00:16:44;;;;;;;63.38;27.08;;;;;;;;;;5027173;28;20135;-48
2023/03/07 00:19:10;;;;;;;62.70;28.08;;;;;;;;;;5026848;28;20021;-49
2023/03/07 00:21:35;;;;;;;63.20;27.20;;;;;;;;;;5027021;28;20030;-49
2023/03/07 00:24:00;;;;;;;64.53;27.73;;;;;;;;;;5026809;28;20383;-50
2023/03/07 00:26:26;;;;;;;62.08;27.88;;;;;;;;;;5027676;28;20025;-50
2023/03/07 00:28:52;;;;;;;63.50;27.63;;;;;;;;;;5027227;28;20552;-48
2023/03/07 00:31:18;;;;;;;61.45;26.40;;;;;;;;;;5026903;28;20378;-50
2023/03/07 00:33:43;;;;;;;67.72;28.90;;;;;;;;;;5027105;28;20017;-48
2023/03/07 00:36:10;;;;;;;70.45;27.90;;;;;;;;;;5026423;28;20025;-48
2023/03/07 00:38:36;;;;;;;61.08;25.85;;;;;;;;;;5027163;28;20025;-47
2023/03/07 00:41:02;;;;;;;63.00;27.73;;;;;;;;;;5026606;28;20025;-48
2023/03/07 00:43:28;;;;;;;54.13;25.77;;;;;;;;;;5026602;28;20242;-48
2023/03/07 00:45:54;;;;;;;57.50;25.73;;;;;;;;;;5026592;28;20762;-48
2023/03/07 00:48:19;;;;;;;54.80;24.67;;;;;;;;;;5026731;28;20175;-48
2023/03/07 00:50:44;;;;;;;53.40;24.20;;;;;;;;;;5026277;28;20506;-47
2023/03/07 00:53:10;;;;;;;52.63;23.40;;;;;;;;;;5026337;28;20091;-52
2023/03/07 00:55:35;;;;;;;50.72;21.80;;;;;;;;;;5023302;28;20062;-51
2023/03/07 00:58:00;;;;;;;46.25;20.98;;;;;;;;;;5026069;28;20044;-52
2023/03/07 01:00:26;;;;;;;47.95;22.85;;;;;;;;;;5026478;28;20051;-50
2023/03/07 01:02:51;;;;;;;49.35;22.17;;;;;;;;;;5025982;28;20465;-49
2023/03/07 01:05:16;;;;;;;45.58;19.80;;;;;;;;;;5026068;28;20366;-48
2023/03/07 01:07:42;;;;;;;45.85;20.90;;;;;;;;;;5026034;28;20029;-52
2023/03/07 01:10:07;;;;;;;49.70;21.88;;;;;;;;;;5025978;28;20021;-49
2023/03/07 01:12:32;;;;;;;48.22;20.38;;;;;;;;;;5026318;28;20100;-50
2023/03/07 01:14:58;;;;;;;54.67;22.10;;;;;;;;;;5024936;28;20372;-48
2023/03/07 01:17:23;;;;;;;54.90;23.05;;;;;;;;;;5025993;28;20029;-48
2023/03/07 01:19:48;;;;;;;47.22;20.70;;;;;;;;;;5025733;28;20022;-47
2023/03/07 01:22:13;;;;;;;52.30;22.95;;;;;;;;;;5025695;28;20033;-48
2023/03/07 01:24:39;;;;;;;46.92;22.27;;;;;;;;;;5025654;28;20104;-50
2023/03/07 01:27:04;;;;;;;50.05;23.17;;;;;;;;;;5025437;28;20025;-48
2023/03/07 01:29:29;;;;;;;54.63;24.35;;;;;;;;;;5025487;28;20495;-47
2023/03/07 01:31:55;;;;;;;52.75;24.35;;;;;;;;;;5026017;28;20488;-51
2023/03/07 01:34:20;;;;;;;60.25;25.70;;;;;;;;;;5025694;28;20432;-47
2023/03/07 01:36:45;;;;;;;55.33;24.98;;;;;;;;;;5024424;28;20032;-52
2023/03/07 01:39:13;;;;;;;57.97;26.92;;;;;;;;;;5025473;28;20026;-49
2023/03/07 01:41:38;;;;;;;53.13;24.83;;;;;;;;;;5025736;28;20028;-47
2023/03/07 01:44:12;;;;;;;48.53;23.23;;;;;;;;;;5025326;28;20509;-49
2023/03/07 01:46:40;;;;;;;54.67;25.67;;;;;;;;;;5025384;28;20017;-47
2023/03/07 01:49:10;;;;;;;61.43;26.97;;;;;;;;;;5025529;28;20037;-48
2023/03/07 01:51:35;;;;;;;;;;;;;;;;;;5025798;28;20254;-49
2023/03/07 01:54:00;;;;;;;54.10;25.75;;;;;;;;;;5025581;28;19913;-50
2023/03/07 01:56:26;;;;;;;62.95;27.27;;;;;;;;;;5025296;28;20033;-48
2023/03/07 01:58:52;;;;;;;62.38;28.05;;;;;;;;;;5025397;28;20022;-51
2023/03/07 02:01:17;;;;;;;71.28;29.08;;;;;;;;;;5025426;28;20053;-49
2023/03/07 02:03:53;;;;;;;63.25;29.17;;;;;;;;;;5025027;28;20033;-49
2023/03/07 02:06:19;;;;;;;64.35;29.33;;;;;;;;;;5025443;28;20083;-49
2023/03/07 02:08:46;;;;;;;73.88;31.08;;;;;;;;;;5025298;28;20064;-52
2023/03/07 02:11:11;;;;;;;71.22;30.45;;;;;;;;;;5039160;28;20479;-46
2023/03/07 02:13:37;;;;;;;69.45;28.83;;;;;;;;;;5024980;28;20090;-48
2023/03/07 02:16:02;;;;;;;72.28;29.63;;;;;;;;;;5025101;28;20029;-49
2023/03/07 02:18:30;;;;;;;63.70;27.50;;;;;;;;;;5025146;28;20377;-49
2023/03/07 02:20:56;;;;;;;62.00;28.77;;;;;;;;;;5024905;28;20026;-48
2023/03/07 02:23:36;;;;;;;56.63;26.00;;;;;;;;;;5024844;28;20025;-47
2023/03/07 02:26:06;;;;;;;58.80;26.63;;;;;;;;;;5024813;28;20079;-50
2023/03/07 02:28:32;;;;;;;57.95;25.90;;;;;;;;;;5024708;28;20040;-51
2023/03/07 02:30:59;;;;;;;59.15;26.65;;;;;;;;;;5024900;28;20022;-51
2023/03/07 02:33:24;;;;;;;59.03;26.95;;;;;;;;;;5038762;28;20191;-48
2023/03/07 02:35:53;;;;;;;60.60;26.75;;;;;;;;;;5027464;28;20120;-48
2023/03/07 02:38:19;;;;;;;64.05;26.83;;;;;;;;;;5028867;28;20469;-49
2023/03/07 02:40:44;;;;;;;58.92;26.17;;;;;;;;;;5028884;28;20113;-52
2023/03/07 02:43:10;;;;;;;54.97;24.40;;;;;;;;;;5028535;28;20026;-49
2023/03/07 02:45:36;;;;;;;55.20;25.90;;;;;;;;;;5028613;28;20523;-49
2023/03/07 02:48:01;;;;;;;60.63;24.20;;;;;;;;;;5027378;28;20034;-50
2023/03/07 02:50:26;;;;;;;56.65;23.60;;;;;;;;;;5028940;28;20014;-50
2023/03/07 02:52:51;;;;;;;47.80;22.23;;;;;;;;;;5028807;28;20056;-48
2023/03/07 02:55:17;;;;;;;53.03;22.70;;;;;;;;;;5029046;28;20107;-51
2023/03/07 02:57:42;;;;;;;51.90;23.85;;;;;;;;;;5025747;28;20053;-50
2023/03/07 03:00:09;;;;;;;44.25;22.45;;;;;;;;;;5028902;28;20028;-47
2023/03/07 03:02:34;;;;;;;53.50;24.13;;;;;;;;;;5009885;28;20041;-49
2023/03/07 03:05:00;;;;;;;51.55;24.35;;;;;;;;;;5028507;28;20021;-49
2023/03/07 03:07:25;;;;;;;55.45;24.52;;;;;;;;;;5028731;28;20523;-48
2023/03/07 03:09:50;;;;;;;52.03;24.63;;;;;;;;;;5028516;28;20104;-50
2023/03/07 03:12:16;;;;;;;55.95;24.95;;;;;;;;;;5028136;28;20060;-49
2023/03/07 03:14:42;;;;;;;58.50;24.90;;;;;;;;;;5028589;28;20363;-49
2023/03/07 03:17:07;;;;;;;53.72;25.17;;;;;;;;;;5025670;28;21164;-49
2023/03/07 03:19:32;;;;;;;50.33;22.70;;;;;;;;;;5028244;28;20457;-52
2023/03/07 03:21:58;;;;;;;57.13;24.42;;;;;;;;;;5028148;28;20029;-49
2023/03/07 03:24:23;;;;;;;56.67;23.40;;;;;;;;;;5028685;28;20075;-50
2023/03/07 03:26:48;;;;;;;47.13;23.00;;;;;;;;;;5028143;28;20031;-49
2023/03/07 03:29:13;;;;;;;49.83;22.83;;;;;;;;;;5028355;28;20296;-50
2023/03/07 03:31:39;;;;;;;58.38;25.52;;;;;;;;;;5028083;28;20072;-49
2023/03/07 03:34:04;;;;;;;51.30;23.70;;;;;;;;;;5042221;28;20064;-49
2023/03/07 03:36:29;;;;;;;54.55;24.20;;;;;;;;;;5028281;28;20028;-48
2023/03/07 03:38:55;;;;;;;55.58;25.58;;;;;;;;;;5026558;28;20057;-51
2023/03/07 03:41:21;;;;;;;57.95;24.42;;;;;;;;;;5027736;28;20013;-50
2023/03/07 03:43:47;;;;;;;54.90;25.17;;;;;;;;;;5027867;28;20017;-51
2023/03/07 03:46:12;;;;;;;59.17;24.40;;;;;;;;;;5027984;28;20061;-48
2023/03/07 03:48:38;;;;;;;54.45;25.23;;;;;;;;;;5027968;28;20052;-52
2023/03/07 03:51:07;;;;;;;59.60;25.60;;;;;;;;;;5027839;28;20397;-49
2023/03/07 03:53:34;;;;;;;57.78;25.27;;;;;;;;;;5027743;28;20437;-51
2023/03/07 03:56:07;;;;;;;57.40;25.83;;;;;;;;;;5027721;28;20065;-51
2023/03/07 03:58:33;;;;;;;58.45;26.08;;;;;;;;;;5024988;28;20029;-49
2023/03/07 04:01:04;;;;;;;51.58;24.35;;;;;;;;;;5027838;28;20059;-48
2023/03/07 04:03:34;;;;;;;63.55;28.55;;;;;;;;;;5027708;28;20018;-52
2023/03/07 04:06:00;;;;;;;61.67;26.48;;;;;;;;;;5028062;28;20025;-49
2023/03/07 04:08:25;;;;;;;59.72;25.67;;;;;;;;;;5027435;28;20460;-50
2023/03/07 04:10:50;;;;;;;56.90;26.10;;;;;;;;;;5027385;28;20025;-52
2023/03/07 04:13:16;;;;;;;62.85;26.60;;;;;;;;;;5027502;28;20060;-50
2023/03/07 04:15:41;;;;;;;59.50;26.95;;;;;;;;;;5027466;28;20525;-50
2023/03/07 04:18:06;;;;;;;60.65;26.45;;;;;;;;;;5026091;28;20087;-50
2023/03/07 04:20:31;;;;;;;62.00;28.33;;;;;;;;;;5027292;28;20025;-50
2023/03/07 04:22:57;;;;;;;63.00;26.67;;;;;;;;;;5027255;28;20023;-50
2023/03/07 04:25:22;;;;;;;64.35;26.10;;;;;;;;;;5007828;28;20037;-47
2023/03/07 04:27:47;;;;;;;57.85;24.48;;;;;;;;;;5026972;28;20381;-49
2023/03/07 04:30:13;;;;;;;59.05;27.40;;;;;;;;;;5026131;28;20028;-51
2023/03/07 04:32:38;;;;;;;52.60;25.25;;;;;;;;;;5027583;28;20584;-48
2023/03/07 04:35:04;;;;;;;68.25;30.88;;;;;;;;;;5026739;28;20029;-53
2023/03/07 04:37:29;;;;;;;70.03;31.42;;;;;;;;;;5027176;28;20037;-52
2023/03/07 04:39:54;;;;;;;64.95;29.02;;;;;;;;;;5027023;28;20037;-50
2023/03/07 04:42:19;;;;;;;71.28;30.50;;;;;;;;;;5027080;28;20032;-54
2023/03/07 04:44:45;;;;;;;66.70;29.23;;;;;;;;;;5026951;28;20021;-49
2023/03/07 04:47:10;;;;;;;88.45;36.00;;;;;;;;;;5026794;28;20093;-53
2023/03/07 04:49:35;;;;;;;80.55;33.95;;;;;;;;;;5026791;28;20038;-51
2023/03/07 04:52:01;;;;;;;63.35;28.40;;;;;;;;;;5026773;28;20022;-50
2023/03/07 04:54:26;;;;;;;66.05;27.27;;;;;;;;;;5023900;28;20084;-53
2023/03/07 04:56:51;;;;;;;70.35;28.88;;;;;;;;;;5026895;28;20048;-51
2023/03/07 04:59:16;;;;;;;63.90;29.02;;;;;;;;;;5026256;28;20076;-52
2023/03/07 05:01:42;;;;;;;60.28;28.40;;;;;;;;;;5027381;28;20056;-49
2023/03/07 05:04:07;;;;;;;59.40;28.75;;;;;;;;;;5041336;28;20044;-49
2023/03/07 05:06:32;;;;;;;66.55;29.30;;;;;;;;;;5026568;28;20047;-49
2023/03/07 05:08:57;;;;;;;68.60;30.45;;;;;;;;;;5026110;28;20483;-50
2023/03/07 05:11:23;;;;;;;63.78;28.70;;;;;;;;;;5026228;28;20025;-49
2023/03/07 05:13:48;;;;;;;72.82;32.47;;;;;;;;;;5006975;28;20052;-49
2023/03/07 05:16:16;;;;;;;75.07;31.95;;;;;;;;;;5025966;28;20447;-51
2023/03/07 05:18:41;;;;;;;76.47;31.23;;;;;;;;;;5026276;28;20106;-50
2023/03/07 05:21:07;;;;;;;68.68;30.77;;;;;;;;;;5026196;28;20057;-48
2023/03/07 05:23:32;;;;;;;65.47;29.90;;;;;;;;;;5026380;28;20013;-50
2023/03/07 05:25:57;;;;;;;73.20;30.02;;;;;;;;;;5026159;28;20025;-50
2023/03/07 05:28:23;;;;;;;65.15;30.30;;;;;;;;;;5025793;28;20460;-49
2023/03/07 05:30:48;;;;;;;64.10;28.63;;;;;;;;;;5025708;28;20021;-48
2023/03/07 05:33:13;;;;;;;72.15;29.95;;;;;;;;;;5025851;28;20109;-52
2023/03/07 05:35:39;;;;;;;67.50;29.17;;;;;;;;;;5025819;28;20030;-50
2023/03/07 05:38:04;;;;;;;70.78;29.13;;;;;;;;;;5006526;28;20404;-48
2023/03/07 05:40:29;;;;;;;64.80;30.23;;;;;;;;;;5025856;28;20583;-49
2023/03/07 05:42:55;;;;;;;71.07;30.25;;;;;;;;;;5025667;28;20064;-50
2023/03/07 05:45:20;;;;;;;72.82;28.90;;;;;;;;;;5025134;28;20531;-50
2023/03/07 05:47:45;;;;;;;64.53;28.58;;;;;;;;;;5025465;28;20034;-50
2023/03/07 05:50:11;;;;;;;72.45;31.88;;;;;;;;;;5025485;28;20017;-54
2023/03/07 05:52:36;;;;;;;71.88;30.58;;;;;;;;;;5025639;28;20037;-51
2023/03/07 05:55:01;;;;;;;69.00;30.08;;;;;;;;;;5025260;28;20136;-49
2023/03/07 05:57:27;;;;;;;65.72;30.00;;;;;;;;;;5025455;28;20017;-53
2023/03/07 05:59:52;;;;;;;64.25;30.77;;;;;;;;;;5025744;28;20372;-54
2023/03/07 06:02:17;;;;;;;70.68;31.45;;;;;;;;;;5025406;28;20022;-52
2023/03/07 06:04:43;;;;;;;67.32;29.02;;;;;;;;;;5025127;28;20021;-55
2023/03/07 06:07:08;;;;;;;70.45;30.27;;;;;;;;;;5025174;28;20116;-50
2023/03/07 06:09:33;;;;;;;66.93;28.70;;;;;;;;;;5024710;28;20501;-52
2023/03/07 06:11:58;;;;;;;70.45;30.52;;;;;;;;;;5025597;28;20037;-49
2023/03/07 06:14:24;;;;;;;73.55;30.20;;;;;;;;;;5025363;28;20456;-55
2023/03/07 06:16:49;;;;;;;68.88;27.92;;;;;;;;;;5027132;28;20576;-48
2023/03/07 06:19:15;;;;;;;66.03;29.10;;;;;;;;;;5025336;28;20477;-50
2023/03/07 06:21:41;;;;;;;67.43;30.88;;;;;;;;;;5024777;28;20084;-49
2023/03/07 06:24:06;;;;;;;75.32;31.52;;;;;;;;;;5025033;28;20029;-51
2023/03/07 06:26:31;;;;;;;67.63;30.77;;;;;;;;;;5024591;28;20484;-49
2023/03/07 06:28:57;;;;;;;76.55;31.98;;;;;;;;;;5025223;28;20112;-51
2023/03/07 06:31:22;;;;;;;74.80;30.98;;;;;;;;;;5025007;28;20045;-50
2023/03/07 06:33:47;;;;;;;74.00;32.53;;;;;;;;;;5025244;28;20036;-52
2023/03/07 06:36:14;;;;;;;77.72;34.00;;;;;;;;;;5024743;28;20029;-54
2023/03/07 06:38:39;;;;;;;74.05;32.80;;;;;;;;;;5024607;28;20021;-48
2023/03/07 06:41:05;;;;;;;68.22;31.38;;;;;;;;;;5022289;28;20060;-50
2023/03/07 06:43:31;;;;;;;75.75;30.95;;;;;;;;;;5022702;28;20026;-50
2023/03/07 06:45:56;;;;;;;80.97;34.15;;;;;;;;;;5023912;28;20523;-49
2023/03/07 06:48:21;;;;;;;70.28;32.88;;;;;;;;;;5021500;28;20059;-53
2023/03/07 06:50:46;;;;;;;75.80;33.20;;;;;;;;;;5021374;28;20057;-53
2023/03/07 06:53:12;;;;;;;66.43;31.52;;;;;;;;;;5026851;28;20536;-52
2023/03/07 06:55:37;;;;;;;77.60;32.67;;;;;;;;;;5023309;28;20092;-51
2023/03/07 06:58:02;;;;;;;77.70;33.22;;;;;;;;;;5020511;28;20029;-51
2023/03/07 07:00:27;;;;;;;73.57;32.15;;;;;;;;;;5028564;28;20022;-51
2023/03/07 07:02:53;;;;;;;76.55;32.92;;;;;;;;;;5022816;28;20041;-49
2023/03/07 07:05:19;;;;;;;73.20;32.53;;;;;;;;;;5035312;28;20053;-51
2023/03/07 07:07:44;;;;;;;70.38;30.33;;;;;;;;;;5019641;28;20029;-49
2023/03/07 07:10:10;;;;;;;73.07;31.42;;;;;;;;;;5020402;28;20543;-52
2023/03/07 07:12:35;;;;;;;76.38;31.60;;;;;;;;;;5036772;28;20037;-48
2023/03/07 07:15:01;;;;;;;68.63;32.85;;;;;;;;;;5025209;28;20020;-46
2023/03/07 07:17:27;;;;;;;74.00;32.30;;;;;;;;;;5022471;28;20642;-49
2023/03/07 07:19:52;;;;;;;78.25;32.80;;;;;;;;;;5021282;28;20029;-50
2023/03/07 07:22:18;;;;;;;76.03;31.75;;;;;;;;;;5027154;28;20485;-47
2023/03/07 07:24:43;;;;;;;70.43;30.67;;;;;;;;;;5027232;28;20029;-46
2023/03/07 07:27:08;;;;;;;73.95;31.17;;;;;;;;;;5031655;28;20025;-50
2023/03/07 07:29:34;;;;;;;69.60;30.00;;;;;;;;;;5028963;28;20021;-45
2023/03/07 07:31:59;;;;;;;64.13;29.95;;;;;;;;;;5031695;28;20030;-48
2023/03/07 07:34:24;;;;;;;65.35;28.63;;;;;;;;;;5027737;28;20048;-50
2023/03/07 07:36:51;;;;;;;60.83;27.38;;;;;;;;;;5021470;28;20025;-47
2023/03/07 07:39:17;;;;;;;61.95;26.90;;;;;;;;;;5021970;28;20473;-49
2023/03/07 07:41:43;;;;;;;60.70;26.83;;;;;;;;;;5025115;28;20077;-50
2023/03/07 07:44:08;;;;;;;55.38;24.88;;;;;;;;;;5025979;28;20021;-49
2023/03/07 07:46:34;;;;;;;51.83;25.13;;;;;;;;;;5029723;28;20068;-49
2023/03/07 07:48:59;;;;;;;55.30;24.27;;;;;;;;;;5047314;28;20624;-49
2023/03/07 07:51:24;;;;;;;50.17;23.17;;;;;;;;;;5046737;28;20064;-49
2023/03/07 07:53:50;;;;;;;50.15;23.58;;;;;;;;;;5023777;28;20094;-49
2023/03/07 07:56:15;;;;;;;53.70;24.13;;;;;;;;;;5026979;28;20128;-48
2023/03/07 07:58:41;;;;;;;48.97;24.75;;;;;;;;;;5024657;28;20535;-48
2023/03/07 08:01:13;;;;;;;45.03;22.77;;;;;;;;;;5025196;28;20053;-49
2023/03/07 08:03:38;;;;;;;48.70;23.33;;;;;;;;;;5025782;28;20449;-48
2023/03/07 08:06:03;;;;;;;49.42;21.25;;;;;;;;;;5025585;28;20036;-46
2023/03/07 08:08:29;;;;;;;50.20;22.33;;;;;;;;;;5027009;28;20033;-49
2023/03/07 08:10:54;;;;;;;58.60;20.77;;;;;;;;;;5026095;28;20025;-47
2023/03/07 08:13:19;;;;;;;84.70;30.70;;;;;;;;;;5021487;28;20040;-51
2023/03/07 08:15:45;;;;;;;46.35;20.98;;;;;;;;;;5025467;28;20033;-50
2023/03/07 08:18:10;;;;;;;472.90;138.25;;;;;;;;;;5027438;28;20021;-48
2023/03/07 08:20:36;;;;;;;237.63;87.55;;;;;;;;;;5025049;28;20025;-50
2023/03/07 08:23:02;;;;;;;43.40;18.90;;;;;;;;;;5026420;28;20377;-47
2023/03/07 08:25:27;;;;;;;70.60;25.00;;;;;;;;;;5026545;28;20052;-51
2023/03/07 08:27:53;;;;;;;95.38;34.38;;;;;;;;;;5029318;28;20056;-46
2023/03/07 08:30:19;;;;;;;41.42;16.65;;;;;;;;;;5026300;28;20457;-46
2023/03/07 08:32:47;;;;;;;69.10;26.33;;;;;;;;;;5030802;28;20040;-50
2023/03/07 08:35:12;;;;;;;50.05;17.52;;;;;;;;;;5006833;28;20116;-50
2023/03/07 08:37:39;;;;;;;39.95;17.90;;;;;;;;;;5019775;28;20132;-49
2023/03/07 08:40:04;;;;;;;42.80;16.92;;;;;;;;;;5036468;28;20025;-48
2023/03/07 08:42:30;;;;;;;37.17;17.50;;;;;;;;;;5025984;28;20025;-48
2023/03/07 08:44:55;;;;;;;35.00;16.02;;;;;;;;;;5022804;28;20037;-47
2023/03/07 08:47:20;;;;;;;44.65;17.67;;;;;;;;;;5025869;28;20059;-48
2023/03/07 08:49:46;;;;;;;37.17;16.27;;;;;;;;;;5029882;28;20124;-48
2023/03/07 08:52:11;;;;;;;36.75;15.57;;;;;;;;;;5021946;28;20113;-48
2023/03/07 08:54:36;;;;;;;44.92;18.85;;;;;;;;;;5027184;28;20137;-49
2023/03/07 08:57:02;;;;;;;44.60;20.70;;;;;;;;;;5026332;28;20060;-50
2023/03/07 08:59:27;;;;;;;40.25;18.02;;;;;;;;;;5025332;28;20025;-48
2023/03/07 09:01:53;;;;;;;41.40;17.98;;;;;;;;;;5022709;28;20303;-50
2023/03/07 09:04:19;;;;;;;38.28;17.90;;;;;;;;;;5026496;28;20031;-48
2023/03/07 09:06:44;;;;;;;35.17;17.45;;;;;;;;;;5032533;28;20033;-48
2023/03/07 09:09:09;;;;;;;36.17;15.82;;;;;;;;;;5025155;28;20060;-49
2023/03/07 09:11:35;;;;;;;39.67;16.52;;;;;;;;;;5025659;28;20025;-49
2023/03/07 09:14:00;;;;;;;36.90;16.42;;;;;;;;;;5025623;28;20026;-48
2023/03/07 09:16:25;;;;;;;39.92;15.85;;;;;;;;;;5023334;28;20586;-50
2023/03/07 09:18:50;;;;;;;34.17;16.08;;;;;;;;;;5024167;28;20465;-48
2023/03/07 09:21:16;;;;;;;38.15;16.10;;;;;;;;;;5024860;28;20021;-47
2023/03/07 09:23:41;;;;;;;36.05;14.48;;;;;;;;;;5026237;28;20025;-46
2023/03/07 09:26:07;;;;;;;30.52;14.80;;;;;;;;;;5023199;28;20025;-48
2023/03/07 09:28:33;;;;;;;33.28;14.63;;;;;;;;;;5027233;28;20033;-50
2023/03/07 09:30:58;;;;;;;36.95;15.10;;;;;;;;;;5032094;28;20116;-48
2023/03/07 09:33:23;;;;;;;36.00;15.20;;;;;;;;;;5024286;28;20056;-48
2023/03/07 09:35:49;;;;;;;34.40;15.57;;;;;;;;;;5023929;28;20444;-45
2023/03/07 09:38:14;;;;;;;41.50;14.82;;;;;;;;;;5023950;28;20400;-48
2023/03/07 09:40:39;;;;;;;37.33;15.73;;;;;;;;;;5025301;28;20393;-46
2023/03/07 09:43:20;;;;;;;38.05;15.38;;;;;;;;;;5024118;28;20086;-49
2023/03/07 09:45:55;;;;;;;30.73;14.38;;;;;;;;;;5023752;28;20087;-54
2023/03/07 09:48:29;;;;;;;33.72;14.70;;;;;;;;;;5024905;28;20084;-50
2023/03/07 09:50:56;;;;;;;28.50;13.73;;;;;;;;;;5020491;28;20053;-50
2023/03/07 09:53:23;;;;;;;30.23;15.10;;;;;;;;;;5023283;28;20017;-47
2023/03/07 09:55:51;;;;;;;39.10;15.48;;;;;;;;;;5023638;28;20056;-48
2023/03/07 09:58:18;;;;;;;34.97;14.60;;;;;;;;;;5021734;28;20056;-47
2023/03/07 10:00:45;;;;;;;35.25;15.88;;;;;;;;;;5024987;28;20068;-49
2023/03/07 10:03:26;;;;;;;34.70;15.25;;;;;;;;;;5024314;28;20017;-51
2023/03/07 10:05:53;;;;;;;31.20;14.02;;;;;;;;;;5008620;28;20368;-50
2023/03/07 10:08:20;;;;;;;32.08;13.60;;;;;;;;;;5020142;28;20038;-49
2023/03/07 10:10:51;;;;;;;32.28;13.35;;;;;;;;;;5010958;28;20468;-48
2023/03/07 10:13:32;;;;;;;32.03;13.35;;;;;;;;;;5024644;28;20029;-47
2023/03/07 10:16:03;;;;;;;36.60;14.15;;;;;;;;;;5024878;28;20421;-49
2023/03/07 10:18:28;;;;;;;29.95;13.63;;;;;;;;;;5038093;28;20374;-46
2023/03/07 10:20:59;;;;;;;29.67;13.10;;;;;;;;;;5024518;28;20018;-48
2023/03/07 10:23:25;;;;;;;27.60;12.80;;;;;;;;;;5024327;28;20021;-47
2023/03/07 10:25:52;;;;;;;28.98;12.60;;;;;;;;;;5015672;28;20033;-47
2023/03/07 10:28:18;;;;;;;32.55;13.65;;;;;;;;;;5005157;28;20030;-48
2023/03/07 10:30:44;;;;;;;24.83;12.73;;;;;;;;;;5005329;28;20052;-46
2023/03/07 10:33:14;;;;;;;31.55;13.23;;;;;;;;;;5002467;28;20036;-50
2023/03/07 10:35:41;;;;;;;26.77;12.18;;;;;;;;;;5037002;28;20082;-50
2023/03/07 10:38:13;;;;;;;30.63;13.68;;;;;;;;;;5042851;28;20035;-46
2023/03/07 10:40:51;;;;;;;26.42;12.60;;;;;;;;;;5018201;28;20374;-48
2023/03/07 10:43:30;;;;;;;37.67;12.77;;;;;;;;;;5020540;28;20021;-50
2023/03/07 10:45:58;;;;;;;30.52;12.70;;;;;;;;;;5021269;28;20033;-49
2023/03/07 10:48:24;;;;;;;27.13;11.30;;;;;;;;;;5027826;28;20132;-49
2023/03/07 10:51:05;;;;;;;29.38;12.55;;;;;;;;;;5022109;28;20029;-48
2023/03/07 10:53:33;;;;;;;30.40;11.98;;;;;;;;;;5022131;28;20120;-46
2023/03/07 10:56:10;;;;;;;28.40;11.63;;;;;;;;;;5024722;28;20050;-50
2023/03/07 10:58:36;;;;;;;30.20;11.23;;;;;;;;;;5025220;28;20038;-53
2023/03/07 11:01:07;;;;;;;28.70;12.20;;;;;;;;;;5022362;28;20507;-49
2023/03/07 11:03:33;;;;;;;30.15;12.55;;;;;;;;;;5028358;28;20079;-46
2023/03/07 11:06:01;;;;;;;28.35;10.85;;;;;;;;;;5026954;28;20033;-48
2023/03/07 11:08:31;;;;;;;18.58;9.52;;;;;;;;;;5026972;28;20511;-51
2023/03/07 11:10:57;;;;;;;24.70;11.05;;;;;;;;;;5014556;28;20075;-50
2023/03/07 11:13:23;;;;;;;30.55;11.52;;;;;;;;;;5027988;28;20037;-48
2023/03/07 11:15:48;;;;;;;27.30;12.38;;;;;;;;;;5022210;28;20022;-51
2023/03/07 11:18:33;;;;;;;32.38;13.80;;;;;;;;;;5021203;28;20044;-48
2023/03/07 11:20:58;;;;;;;29.40;11.77;;;;;;;;;;5043628;28;20032;-48
2023/03/07 11:23:25;;;;;;;33.38;13.98;;;;;;;;;;5030842;28;20017;-47
2023/03/07 11:25:51;;;;;;;43.58;12.98;;;;;;;;;;5031532;28;20017;-51
2023/03/07 11:28:29;;;;;;;24.27;11.57;;;;;;;;;;5032791;28;20177;-51
2023/03/07 11:30:59;;;;;;;24.55;11.60;;;;;;;;;;5021873;28;20397;-48
2023/03/07 11:33:37;;;;;;;28.88;11.45;;;;;;;;;;5022823;28;20449;-50
2023/03/07 11:36:08;;;;;;;21.98;10.60;;;;;;;;;;5027144;28;20119;-53
2023/03/07 11:38:33;;;;;;;27.05;11.32;;;;;;;;;;5026216;28;20098;-50
2023/03/07 11:41:03;;;;;;;29.73;12.52;;;;;;;;;;5022145;28;20508;-53
2023/03/07 11:43:41;;;;;;;24.58;10.07;;;;;;;;;;5024250;28;20040;-51
2023/03/07 11:46:09;;;;;;;22.67;11.07;;;;;;;;;;5026958;28;20254;-47
2023/03/07 11:48:50;;;;;;;34.63;14.57;;;;;;;;;;5027588;28;20392;-49
2023/03/07 11:51:25;;;;;;;25.63;11.00;;;;;;;;;;5020116;28;20428;-49
2023/03/07 11:53:50;;;;;;;25.55;10.70;;;;;;;;;;5025192;28;20492;-48
2023/03/07 11:56:35;;;;;;;20.80;10.23;;;;;;;;;;5026722;28;20045;-50
2023/03/07 11:59:10;;;;;;;21.17;10.00;;;;;;;;;;5026105;28;20037;-49
2023/03/07 12:01:54;;;;;;;22.20;9.90;;;;;;;;;;5034462;28;20126;-47
2023/03/07 12:04:31;;;;;;;22.13;9.98;;;;;;;;;;5014133;28;20382;-51
2023/03/07 12:06:56;;;;;;;19.77;10.38;;;;;;;;;;5023782;28;20382;-51
2023/03/07 12:09:34;;;;;;;20.10;8.93;;;;;;;;;;5015228;28;20124;-49
2023/03/07 12:12:18;;;;;;;17.02;8.02;;;;;;;;;;5015545;28;20084;-52
2023/03/07 12:14:46;;;;;;;17.75;8.10;;;;;;;;;;5024818;28;20029;-50
2023/03/07 12:17:17;;;;;;;18.90;8.20;;;;;;;;;;5026298;28;20473;-53
2023/03/07 12:19:59;;;;;;;17.23;9.02;;;;;;;;;;5024906;28;20446;-51
2023/03/07 12:22:27;;;;;;;18.88;8.75;;;;;;;;;;5023889;28;20022;-52
2023/03/07 12:24:53;;;;;;;18.58;8.82;;;;;;;;;;5024967;28;20115;-48
2023/03/07 12:27:22;;;;;;;15.63;7.40;;;;;;;;;;5031879;28;20119;-46
2023/03/07 12:29:52;;;;;;;22.65;9.02;;;;;;;;;;5038068;28;20495;-49
2023/03/07 12:32:21;;;;;;;18.92;8.43;;;;;;;;;;5024070;28;20036;-46
2023/03/07 12:34:50;;;;;;;21.27;9.10;;;;;;;;;;5026747;28;20014;-50
2023/03/07 12:37:21;;;;;;;15.80;7.45;;;;;;;;;;5030029;28;20236;-51
2023/03/07 12:39:51;;;;;;;21.88;9.80;;;;;;;;;;5026227;28;20044;-47
2023/03/07 12:42:35;;;;;;;18.95;8.88;;;;;;;;;;5022905;28;20485;-48
2023/03/07 12:45:08;;;;;;;21.33;8.90;;;;;;;;;;5027734;28;20389;-47
2023/03/07 12:47:33;;;;;;;25.05;10.55;;;;;;;;;;5013117;28;20040;-49
2023/03/07 12:50:08;;;;;;;18.73;8.23;;;;;;;;;;5024000;28;20026;-50
2023/03/07 12:52:38;;;;;;;36.60;12.70;;;;;;;;;;5026857;28;20108;-49
2023/03/07 12:55:13;;;;;;;18.67;9.57;;;;;;;;;;5011945;28;20057;-47
2023/03/07 12:57:42;;;;;;;21.10;9.57;;;;;;;;;;5028018;28;20037;-52
2023/03/07 13:00:10;;;;;;;24.52;9.88;;;;;;;;;;5024628;28;20124;-53
2023/03/07 13:02:59;;;;;;;27.95;8.95;;;;;;;;;;5013045;28;20113;-50
2023/03/07 13:05:24;;;;;;;24.70;8.90;;;;;;;;;;5040561;28;20037;-49
2023/03/07 13:07:50;;;;;;;22.08;8.80;;;;;;;;;;5041582;28;20464;-48
2023/03/07 13:10:19;;;;;;;15.80;7.28;;;;;;;;;;5041572;28;20112;-49
2023/03/07 13:12:45;;;;;;;24.25;9.68;;;;;;;;;;5039261;28;20419;-48
2023/03/07 13:15:16;;;;;;;23.33;9.73;;;;;;;;;;5040078;28;20094;-50
2023/03/07 13:17:41;;;;;;;20.42;9.57;;;;;;;;;;5041646;28;20037;-49
2023/03/07 13:20:25;;;;;;;18.17;8.90;;;;;;;;;;5042543;28;20029;-49
2023/03/07 13:22:52;;;;;;;18.83;8.00;;;;;;;;;;5041840;28;20033;-49
2023/03/07 13:25:22;;;;;;;23.70;10.80;;;;;;;;;;5039950;28;20535;-49
2023/03/07 13:27:50;;;;;;;25.13;9.85;;;;;;;;;;5043628;28;20731;-49
2023/03/07 13:30:18;;;;;;;23.63;9.45;;;;;;;;;;5040253;28;20095;-47
2023/03/07 13:32:49;;;;;;;24.63;10.32;;;;;;;;;;5035237;28;20935;-50
2023/03/07 13:35:29;;;;;;;18.75;8.55;;;;;;;;;;5038082;28;20692;-47
2023/03/07 13:38:02;;;;;;;22.75;9.85;;;;;;;;;;5041853;28;20025;-51
2023/03/07 13:40:33;;;;;;;20.83;9.05;;;;;;;;;;5041955;28;20067;-51
2023/03/07 13:42:58;;;;;;;21.27;8.85;;;;;;;;;;5021016;28;20125;-47
2023/03/07 13:45:36;;;;;;;17.48;9.05;;;;;;;;;;5014347;28;20275;-51
2023/03/07 13:48:01;;;;;;;24.25;8.77;;;;;;;;;;5032772;28;20033;-46
2023/03/07 13:50:33;;;;;;;21.40;8.07;;;;;;;;;;5018804;28;20696;-52
2023/03/07 13:52:58;;;;;;;26.30;8.30;;;;;;;;;;5023931;28;20075;-49
2023/03/07 13:55:24;;;;;;;20.70;8.32;;;;;;;;;;5024926;28;20049;-52
2023/03/07 13:57:52;;;;;;;28.67;8.80;;;;;;;;;;5023126;28;20516;-48
2023/03/07 14:00:25;;;;;;;25.73;9.27;;;;;;;;;;5019677;28;20038;-50
2023/03/07 14:02:52;;;;;;;19.58;8.73;;;;;;;;;;5021566;28;20052;-50
2023/03/07 14:05:17;;;;;;;27.50;11.23;;;;;;;;;;5026953;28;20021;-52
2023/03/07 14:07:43;;;;;;;22.48;9.45;;;;;;;;;;5025178;28;20032;-51
2023/03/07 14:10:12;;;;;;;18.40;8.38;;;;;;;;;;5025680;28;20025;-48
2023/03/07 14:12:47;;;;;;;19.60;9.05;;;;;;;;;;5028051;28;20022;-51
2023/03/07 14:15:12;;;;;;;22.17;9.05;;;;;;;;;;5021633;28;20516;-52
2023/03/07 14:17:58;;;;;;;25.55;8.85;;;;;;;;;;5021817;28;20042;-51
2023/03/07 14:20:27;;;;;;;21.90;9.32;;;;;;;;;;5024911;28;20021;-50